sensor_id;sensor_type;location;lat;lon;timestamp;P1;durP1;ratioP1;P2;durP2;ratioP2
56401;SDS011;42299;35.160;26.100;2023-05-21T00:00:46;12.07;;;7.75;;
56401;SDS011;42299;35.160;26.100;2023-05-21T00:02:09;13.50;;;8.38;;
56401;SDS011;42299;35.160;26.100;2023-05-21T00:03:34;12.52;;;7.82;;
56401;SDS011;42299;35.160;26.100;2023-05-21T00:05:01;14.75;;;8.48;;
56401;SDS011;42299;35.160;26.100;2023-05-21T00:06:23;14.25;;;8.13;;
56401;SDS011;42299;35.160;26.100;2023-05-21T00:07:46;15.90;;;8.40;;
56401;SDS011;42299;35.160;26.100;2023-05-21T00:09:12;13.93;;;7.65;;
56401;SDS011;42299;35.160;26.100;2023-05-21T00:10:35;11.52;;;7.68;;
56401;SDS011;42299;35.160;26.100;2023-05-21T00:11:56;11.75;;;8.25;;
56401;SDS011;42299;35.160;26.100;2023-05-21T00:13:20;17.52;;;8.77;;
56401;SDS011;42299;35.160;26.100;2023-05-21T00:14:41;15.48;;;8.25;;
56401;SDS011;42299;35.160;26.100;2023-05-21T00:16:04;14.43;;;8.30;;
56401;SDS011;42299;35.160;26.100;2023-05-21T00:18:48;13.13;;;8.60;;
56401;SDS011;42299;35.160;26.100;2023-05-21T00:20:11;14.63;;;8.55;;
56401;SDS011;42299;35.160;26.100;2023-05-21T00:21:34;17.20;;;8.48;;
56401;SDS011;42299;35.160;26.100;2023-05-21T00:22:55;15.02;;;9.27;;
56401;SDS011;42299;35.160;26.100;2023-05-21T00:24:17;11.85;;;8.32;;
56401;SDS011;42299;35.160;26.100;2023-05-21T00:25:39;15.75;;;8.88;;
56401;SDS011;42299;35.160;26.100;2023-05-21T00:27:01;14.07;;;8.75;;
56401;SDS011;42299;35.160;26.100;2023-05-21T00:28:25;15.30;;;10.02;;
56401;SDS011;42299;35.160;26.100;2023-05-21T00:29:47;14.30;;;8.35;;
56401;SDS011;42299;35.160;26.100;2023-05-21T00:31:10;12.38;;;9.05;;
56401;SDS011;42299;35.160;26.100;2023-05-21T00:32:32;14.50;;;9.02;;
56401;SDS011;42299;35.160;26.100;2023-05-21T00:33:53;13.85;;;8.73;;
56401;SDS011;42299;35.160;26.100;2023-05-21T00:35:16;14.68;;;8.70;;
56401;SDS011;42299;35.160;26.100;2023-05-21T00:36:39;15.48;;;9.02;;
56401;SDS011;42299;35.160;26.100;2023-05-21T00:38:04;12.77;;;8.63;;
56401;SDS011;42299;35.160;26.100;2023-05-21T00:39:26;15.07;;;8.25;;
56401;SDS011;42299;35.160;26.100;2023-05-21T00:40:49;12.65;;;7.40;;
56401;SDS011;42299;35.160;26.100;2023-05-21T00:42:12;14.68;;;8.50;;
56401;SDS011;42299;35.160;26.100;2023-05-21T00:43:38;14.75;;;8.00;;
56401;SDS011;42299;35.160;26.100;2023-05-21T00:45:01;13.30;;;7.93;;
56401;SDS011;42299;35.160;26.100;2023-05-21T00:46:23;11.82;;;7.93;;
56401;SDS011;42299;35.160;26.100;2023-05-21T00:47:47;13.32;;;8.60;;
56401;SDS011;42299;35.160;26.100;2023-05-21T00:49:13;13.95;;;7.78;;
56401;SDS011;42299;35.160;26.100;2023-05-21T00:50:35;14.05;;;7.45;;
56401;SDS011;42299;35.160;26.100;2023-05-21T00:51:59;13.68;;;7.25;;
56401;SDS011;42299;35.160;26.100;2023-05-21T00:54:43;11.40;;;7.18;;
56401;SDS011;42299;35.160;26.100;2023-05-21T00:56:04;12.02;;;7.95;;
56401;SDS011;42299;35.160;26.100;2023-05-21T00:57:27;11.18;;;6.80;;
56401;SDS011;42299;35.160;26.100;2023-05-21T00:58:54;11.85;;;7.25;;
56401;SDS011;42299;35.160;26.100;2023-05-21T01:00:18;11.30;;;7.80;;
56401;SDS011;42299;35.160;26.100;2023-05-21T01:01:42;11.00;;;6.70;;
56401;SDS011;42299;35.160;26.100;2023-05-21T01:03:04;11.70;;;7.15;;
56401;SDS011;42299;35.160;26.100;2023-05-21T01:04:27;14.75;;;7.72;;
56401;SDS011;42299;35.160;26.100;2023-05-21T01:05:50;15.15;;;7.90;;
56401;SDS011;42299;35.160;26.100;2023-05-21T01:07:19;12.95;;;7.05;;
56401;SDS011;42299;35.160;26.100;2023-05-21T01:08:41;11.35;;;7.45;;
56401;SDS011;42299;35.160;26.100;2023-05-21T01:10:05;11.25;;;7.13;;
56401;SDS011;42299;35.160;26.100;2023-05-21T01:11:32;12.35;;;7.05;;
56401;SDS011;42299;35.160;26.100;2023-05-21T01:12:59;12.45;;;7.15;;
56401;SDS011;42299;35.160;26.100;2023-05-21T01:14:23;11.60;;;7.45;;
56401;SDS011;42299;35.160;26.100;2023-05-21T01:15:46;14.20;;;8.15;;
56401;SDS011;42299;35.160;26.100;2023-05-21T01:17:09;11.32;;;7.55;;
56401;SDS011;42299;35.160;26.100;2023-05-21T01:18:32;15.20;;;7.65;;
56401;SDS011;42299;35.160;26.100;2023-05-21T01:19:56;15.68;;;6.88;;
56401;SDS011;42299;35.160;26.100;2023-05-21T01:21:19;12.55;;;6.68;;
56401;SDS011;42299;35.160;26.100;2023-05-21T01:22:53;12.82;;;7.13;;
56401;SDS011;42299;35.160;26.100;2023-05-21T01:24:17;10.35;;;6.78;;
56401;SDS011;42299;35.160;26.100;2023-05-21T01:25:40;13.13;;;7.50;;
56401;SDS011;42299;35.160;26.100;2023-05-21T01:27:02;11.27;;;7.47;;
56401;SDS011;42299;35.160;26.100;2023-05-21T01:28:27;11.05;;;6.50;;
56401;SDS011;42299;35.160;26.100;2023-05-21T01:31:15;10.82;;;7.15;;
56401;SDS011;42299;35.160;26.100;2023-05-21T01:32:44;12.27;;;7.85;;
56401;SDS011;42299;35.160;26.100;2023-05-21T01:34:10;11.82;;;7.25;;
56401;SDS011;42299;35.160;26.100;2023-05-21T01:35:34;13.23;;;6.53;;
56401;SDS011;42299;35.160;26.100;2023-05-21T01:37:03;13.80;;;7.75;;
56401;SDS011;42299;35.160;26.100;2023-05-21T01:38:35;11.00;;;6.55;;
56401;SDS011;42299;35.160;26.100;2023-05-21T01:40:03;11.65;;;6.88;;
56401;SDS011;42299;35.160;26.100;2023-05-21T01:41:31;10.38;;;6.97;;
56401;SDS011;42299;35.160;26.100;2023-05-21T01:42:55;11.13;;;6.68;;
56401;SDS011;42299;35.160;26.100;2023-05-21T01:44:19;14.85;;;6.60;;
56401;SDS011;42299;35.160;26.100;2023-05-21T01:45:42;12.10;;;7.07;;
56401;SDS011;42299;35.160;26.100;2023-05-21T01:47:07;11.00;;;7.05;;
56401;SDS011;42299;35.160;26.100;2023-05-21T01:48:28;22.30;;;7.07;;
56401;SDS011;42299;35.160;26.100;2023-05-21T01:49:52;11.52;;;6.40;;
56401;SDS011;42299;35.160;26.100;2023-05-21T01:51:14;10.88;;;6.97;;
56401;SDS011;42299;35.160;26.100;2023-05-21T01:52:37;14.43;;;6.85;;
56401;SDS011;42299;35.160;26.100;2023-05-21T01:54:01;10.20;;;6.40;;
56401;SDS011;42299;35.160;26.100;2023-05-21T01:55:24;8.73;;;6.38;;
56401;SDS011;42299;35.160;26.100;2023-05-21T01:56:46;11.95;;;6.72;;
56401;SDS011;42299;35.160;26.100;2023-05-21T01:58:09;11.35;;;6.75;;
56401;SDS011;42299;35.160;26.100;2023-05-21T01:59:31;10.57;;;6.50;;
56401;SDS011;42299;35.160;26.100;2023-05-21T02:00:53;11.77;;;6.68;;
56401;SDS011;42299;35.160;26.100;2023-05-21T02:02:16;10.27;;;6.32;;
56401;SDS011;42299;35.160;26.100;2023-05-21T02:03:37;17.77;;;6.93;;
56401;SDS011;42299;35.160;26.100;2023-05-21T02:05:00;10.10;;;6.05;;
56401;SDS011;42299;35.160;26.100;2023-05-21T02:06:23;10.23;;;6.82;;
56401;SDS011;42299;35.160;26.100;2023-05-21T02:07:46;10.70;;;6.60;;
56401;SDS011;42299;35.160;26.100;2023-05-21T02:09:09;10.70;;;6.90;;
56401;SDS011;42299;35.160;26.100;2023-05-21T02:10:31;9.40;;;5.60;;
56401;SDS011;42299;35.160;26.100;2023-05-21T02:11:54;9.80;;;6.38;;
56401;SDS011;42299;35.160;26.100;2023-05-21T02:13:15;10.60;;;7.57;;
56401;SDS011;42299;35.160;26.100;2023-05-21T02:14:40;10.63;;;6.28;;
56401;SDS011;42299;35.160;26.100;2023-05-21T02:16:01;10.27;;;6.43;;
56401;SDS011;42299;35.160;26.100;2023-05-21T02:17:24;9.35;;;5.82;;
56401;SDS011;42299;35.160;26.100;2023-05-21T02:18:45;11.20;;;6.15;;
56401;SDS011;42299;35.160;26.100;2023-05-21T02:20:11;12.52;;;6.22;;
56401;SDS011;42299;35.160;26.100;2023-05-21T02:21:33;8.88;;;6.00;;
56401;SDS011;42299;35.160;26.100;2023-05-21T02:22:56;9.63;;;5.95;;
56401;SDS011;42299;35.160;26.100;2023-05-21T02:24:20;9.63;;;5.68;;
56401;SDS011;42299;35.160;26.100;2023-05-21T02:25:43;11.30;;;6.30;;
56401;SDS011;42299;35.160;26.100;2023-05-21T02:27:06;11.75;;;6.53;;
56401;SDS011;42299;35.160;26.100;2023-05-21T02:28:27;9.50;;;6.65;;
56401;SDS011;42299;35.160;26.100;2023-05-21T02:29:52;10.65;;;5.63;;
56401;SDS011;42299;35.160;26.100;2023-05-21T02:31:14;10.77;;;6.38;;
56401;SDS011;42299;35.160;26.100;2023-05-21T02:32:36;11.02;;;5.50;;
56401;SDS011;42299;35.160;26.100;2023-05-21T02:33:59;10.27;;;6.05;;
56401;SDS011;42299;35.160;26.100;2023-05-21T02:35:21;10.88;;;5.88;;
56401;SDS011;42299;35.160;26.100;2023-05-21T02:36:42;10.23;;;6.90;;
56401;SDS011;42299;35.160;26.100;2023-05-21T02:38:07;10.50;;;5.50;;
56401;SDS011;42299;35.160;26.100;2023-05-21T02:39:31;9.25;;;5.43;;
56401;SDS011;42299;35.160;26.100;2023-05-21T02:40:54;11.52;;;5.57;;
56401;SDS011;42299;35.160;26.100;2023-05-21T02:42:15;9.93;;;5.90;;
56401;SDS011;42299;35.160;26.100;2023-05-21T02:43:37;11.23;;;5.68;;
56401;SDS011;42299;35.160;26.100;2023-05-21T02:44:59;13.80;;;6.10;;
56401;SDS011;42299;35.160;26.100;2023-05-21T02:46:21;10.63;;;5.53;;
56401;SDS011;42299;35.160;26.100;2023-05-21T02:47:45;9.73;;;5.70;;
56401;SDS011;42299;35.160;26.100;2023-05-21T02:49:11;11.05;;;6.15;;
56401;SDS011;42299;35.160;26.100;2023-05-21T02:50:36;9.27;;;5.07;;
56401;SDS011;42299;35.160;26.100;2023-05-21T02:51:59;12.60;;;5.30;;
56401;SDS011;42299;35.160;26.100;2023-05-21T02:53:20;8.93;;;5.43;;
56401;SDS011;42299;35.160;26.100;2023-05-21T02:54:44;8.93;;;5.05;;
56401;SDS011;42299;35.160;26.100;2023-05-21T02:56:07;11.98;;;5.65;;
56401;SDS011;42299;35.160;26.100;2023-05-21T02:57:28;10.48;;;5.22;;
56401;SDS011;42299;35.160;26.100;2023-05-21T02:58:51;11.48;;;6.05;;
56401;SDS011;42299;35.160;26.100;2023-05-21T03:00:14;12.90;;;5.95;;
56401;SDS011;42299;35.160;26.100;2023-05-21T03:01:36;11.63;;;5.45;;
56401;SDS011;42299;35.160;26.100;2023-05-21T03:03:00;9.80;;;5.50;;
56401;SDS011;42299;35.160;26.100;2023-05-21T03:04:23;10.15;;;5.72;;
56401;SDS011;42299;35.160;26.100;2023-05-21T03:05:44;10.20;;;5.22;;
56401;SDS011;42299;35.160;26.100;2023-05-21T03:07:07;10.52;;;4.88;;
56401;SDS011;42299;35.160;26.100;2023-05-21T03:08:29;10.68;;;5.13;;
56401;SDS011;42299;35.160;26.100;2023-05-21T03:09:54;9.23;;;5.32;;
56401;SDS011;42299;35.160;26.100;2023-05-21T03:11:15;9.73;;;6.00;;
56401;SDS011;42299;35.160;26.100;2023-05-21T03:12:39;9.45;;;5.00;;
56401;SDS011;42299;35.160;26.100;2023-05-21T03:14:00;9.95;;;5.45;;
56401;SDS011;42299;35.160;26.100;2023-05-21T03:15:23;12.02;;;5.60;;
56401;SDS011;42299;35.160;26.100;2023-05-21T03:16:44;11.70;;;5.47;;
56401;SDS011;42299;35.160;26.100;2023-05-21T03:18:06;10.80;;;5.93;;
56401;SDS011;42299;35.160;26.100;2023-05-21T03:19:28;11.05;;;5.13;;
56401;SDS011;42299;35.160;26.100;2023-05-21T03:20:55;9.70;;;5.30;;
56401;SDS011;42299;35.160;26.100;2023-05-21T03:22:18;10.77;;;4.90;;
56401;SDS011;42299;35.160;26.100;2023-05-21T03:23:39;10.13;;;5.28;;
56401;SDS011;42299;35.160;26.100;2023-05-21T03:25:04;10.52;;;5.22;;
56401;SDS011;42299;35.160;26.100;2023-05-21T03:26:26;11.00;;;5.55;;
56401;SDS011;42299;35.160;26.100;2023-05-21T03:27:49;9.55;;;5.72;;
56401;SDS011;42299;35.160;26.100;2023-05-21T03:29:30;13.55;;;5.93;;
56401;SDS011;42299;35.160;26.100;2023-05-21T03:30:54;9.63;;;5.75;;
56401;SDS011;42299;35.160;26.100;2023-05-21T03:32:28;9.90;;;5.93;;
56401;SDS011;42299;35.160;26.100;2023-05-21T03:33:50;11.90;;;5.93;;
56401;SDS011;42299;35.160;26.100;2023-05-21T03:35:22;9.52;;;5.90;;
56401;SDS011;42299;35.160;26.100;2023-05-21T03:36:45;14.88;;;7.22;;
56401;SDS011;42299;35.160;26.100;2023-05-21T03:38:08;11.93;;;6.85;;
56401;SDS011;42299;35.160;26.100;2023-05-21T03:39:31;13.70;;;7.05;;
56401;SDS011;42299;35.160;26.100;2023-05-21T03:40:54;14.70;;;7.97;;
56401;SDS011;42299;35.160;26.100;2023-05-21T03:42:17;12.57;;;7.10;;
56401;SDS011;42299;35.160;26.100;2023-05-21T03:43:43;14.98;;;7.95;;
56401;SDS011;42299;35.160;26.100;2023-05-21T03:45:05;17.77;;;8.65;;
56401;SDS011;42299;35.160;26.100;2023-05-21T03:47:04;17.52;;;9.48;;
56401;SDS011;42299;35.160;26.100;2023-05-21T03:48:29;18.33;;;9.10;;
56401;SDS011;42299;35.160;26.100;2023-05-21T03:49:50;15.63;;;9.05;;
56401;SDS011;42299;35.160;26.100;2023-05-21T03:51:12;15.40;;;10.15;;
56401;SDS011;42299;35.160;26.100;2023-05-21T03:52:35;15.75;;;10.38;;
56401;SDS011;42299;35.160;26.100;2023-05-21T03:53:58;17.63;;;10.10;;
56401;SDS011;42299;35.160;26.100;2023-05-21T03:55:21;17.65;;;10.70;;
56401;SDS011;42299;35.160;26.100;2023-05-21T03:56:45;18.85;;;10.18;;
56401;SDS011;42299;35.160;26.100;2023-05-21T03:58:06;15.90;;;10.07;;
56401;SDS011;42299;35.160;26.100;2023-05-21T03:59:30;20.13;;;10.85;;
56401;SDS011;42299;35.160;26.100;2023-05-21T04:00:52;19.13;;;11.23;;
56401;SDS011;42299;35.160;26.100;2023-05-21T04:02:15;21.25;;;10.70;;
56401;SDS011;42299;35.160;26.100;2023-05-21T04:03:37;16.50;;;9.60;;
56401;SDS011;42299;35.160;26.100;2023-05-21T04:05:00;20.77;;;10.25;;
56401;SDS011;42299;35.160;26.100;2023-05-21T04:06:23;18.42;;;11.27;;
56401;SDS011;42299;35.160;26.100;2023-05-21T04:07:44;17.00;;;10.55;;
56401;SDS011;42299;35.160;26.100;2023-05-21T04:09:07;16.65;;;10.30;;
56401;SDS011;42299;35.160;26.100;2023-05-21T04:10:29;20.42;;;10.55;;
56401;SDS011;42299;35.160;26.100;2023-05-21T04:11:53;17.83;;;11.05;;
56401;SDS011;42299;35.160;26.100;2023-05-21T04:13:15;17.83;;;10.65;;
56401;SDS011;42299;35.160;26.100;2023-05-21T04:14:37;20.35;;;11.68;;
56401;SDS011;42299;35.160;26.100;2023-05-21T04:15:59;17.70;;;10.75;;
56401;SDS011;42299;35.160;26.100;2023-05-21T04:17:20;19.15;;;11.45;;
56401;SDS011;42299;35.160;26.100;2023-05-21T04:18:46;18.83;;;12.07;;
56401;SDS011;42299;35.160;26.100;2023-05-21T04:20:09;21.55;;;13.77;;
56401;SDS011;42299;35.160;26.100;2023-05-21T04:21:33;24.55;;;13.27;;
56401;SDS011;42299;35.160;26.100;2023-05-21T04:22:54;22.73;;;12.55;;
56401;SDS011;42299;35.160;26.100;2023-05-21T04:24:17;23.25;;;12.50;;
56401;SDS011;42299;35.160;26.100;2023-05-21T04:25:44;18.20;;;11.00;;
56401;SDS011;42299;35.160;26.100;2023-05-21T04:27:12;18.80;;;10.77;;
56401;SDS011;42299;35.160;26.100;2023-05-21T04:28:36;19.27;;;11.80;;
56401;SDS011;42299;35.160;26.100;2023-05-21T04:30:03;18.42;;;11.05;;
56401;SDS011;42299;35.160;26.100;2023-05-21T04:31:29;17.48;;;11.60;;
56401;SDS011;42299;35.160;26.100;2023-05-21T04:34:14;19.98;;;10.88;;
56401;SDS011;42299;35.160;26.100;2023-05-21T04:35:37;20.20;;;11.88;;
56401;SDS011;42299;35.160;26.100;2023-05-21T04:37:04;19.08;;;11.10;;
56401;SDS011;42299;35.160;26.100;2023-05-21T04:38:26;17.58;;;11.60;;
56401;SDS011;42299;35.160;26.100;2023-05-21T04:39:48;23.25;;;13.10;;
56401;SDS011;42299;35.160;26.100;2023-05-21T04:41:10;21.55;;;13.15;;
56401;SDS011;42299;35.160;26.100;2023-05-21T04:42:38;23.10;;;12.18;;
56401;SDS011;42299;35.160;26.100;2023-05-21T04:44:01;20.67;;;13.20;;
56401;SDS011;42299;35.160;26.100;2023-05-21T04:45:25;19.73;;;14.38;;
56401;SDS011;42299;35.160;26.100;2023-05-21T04:46:48;27.80;;;15.10;;
56401;SDS011;42299;35.160;26.100;2023-05-21T04:48:12;21.00;;;11.90;;
56401;SDS011;42299;35.160;26.100;2023-05-21T04:49:35;20.33;;;10.98;;
56401;SDS011;42299;35.160;26.100;2023-05-21T04:50:57;20.25;;;10.93;;
56401;SDS011;42299;35.160;26.100;2023-05-21T04:52:19;17.88;;;8.93;;
56401;SDS011;42299;35.160;26.100;2023-05-21T04:53:44;14.25;;;8.50;;
56401;SDS011;42299;35.160;26.100;2023-05-21T04:55:07;22.42;;;9.70;;
56401;SDS011;42299;35.160;26.100;2023-05-21T04:56:30;23.50;;;9.75;;
56401;SDS011;42299;35.160;26.100;2023-05-21T04:57:53;14.68;;;8.60;;
56401;SDS011;42299;35.160;26.100;2023-05-21T04:59:16;16.58;;;8.10;;
56401;SDS011;42299;35.160;26.100;2023-05-21T05:00:40;17.13;;;8.88;;
56401;SDS011;42299;35.160;26.100;2023-05-21T05:02:05;17.17;;;9.55;;
56401;SDS011;42299;35.160;26.100;2023-05-21T05:03:28;18.73;;;9.80;;
56401;SDS011;42299;35.160;26.100;2023-05-21T05:04:49;18.42;;;9.02;;
56401;SDS011;42299;35.160;26.100;2023-05-21T05:06:13;17.67;;;9.57;;
56401;SDS011;42299;35.160;26.100;2023-05-21T05:07:36;19.13;;;9.60;;
56401;SDS011;42299;35.160;26.100;2023-05-21T05:08:57;16.50;;;9.68;;
56401;SDS011;42299;35.160;26.100;2023-05-21T05:10:20;18.40;;;9.43;;
56401;SDS011;42299;35.160;26.100;2023-05-21T05:11:42;17.08;;;8.88;;
56401;SDS011;42299;35.160;26.100;2023-05-21T05:13:06;20.38;;;10.70;;
56401;SDS011;42299;35.160;26.100;2023-05-21T05:14:29;14.68;;;9.63;;
56401;SDS011;42299;35.160;26.100;2023-05-21T05:15:52;21.88;;;10.15;;
56401;SDS011;42299;35.160;26.100;2023-05-21T05:17:14;22.00;;;9.10;;
56401;SDS011;42299;35.160;26.100;2023-05-21T05:18:37;18.63;;;8.80;;
56401;SDS011;42299;35.160;26.100;2023-05-21T05:19:58;21.38;;;9.65;;
56401;SDS011;42299;35.160;26.100;2023-05-21T05:21:21;22.85;;;9.50;;
56401;SDS011;42299;35.160;26.100;2023-05-21T05:22:43;20.98;;;9.02;;
56401;SDS011;42299;35.160;26.100;2023-05-21T05:24:06;18.40;;;8.43;;
56401;SDS011;42299;35.160;26.100;2023-05-21T05:25:29;23.10;;;9.13;;
56401;SDS011;42299;35.160;26.100;2023-05-21T05:26:51;18.05;;;7.88;;
56401;SDS011;42299;35.160;26.100;2023-05-21T05:28:16;19.63;;;8.70;;
56401;SDS011;42299;35.160;26.100;2023-05-21T05:29:39;19.83;;;7.65;;
56401;SDS011;42299;35.160;26.100;2023-05-21T05:31:01;19.25;;;8.48;;
56401;SDS011;42299;35.160;26.100;2023-05-21T05:32:25;22.40;;;8.65;;
56401;SDS011;42299;35.160;26.100;2023-05-21T05:33:48;24.50;;;7.70;;
56401;SDS011;42299;35.160;26.100;2023-05-21T05:35:10;23.65;;;8.35;;
56401;SDS011;42299;35.160;26.100;2023-05-21T05:36:32;21.65;;;8.45;;
56401;SDS011;42299;35.160;26.100;2023-05-21T05:37:56;32.60;;;8.18;;
56401;SDS011;42299;35.160;26.100;2023-05-21T05:39:18;24.27;;;8.73;;
56401;SDS011;42299;35.160;26.100;2023-05-21T05:40:41;29.75;;;8.25;;
56401;SDS011;42299;35.160;26.100;2023-05-21T05:42:04;24.77;;;8.68;;
56401;SDS011;42299;35.160;26.100;2023-05-21T05:44:51;30.95;;;8.82;;
56401;SDS011;42299;35.160;26.100;2023-05-21T05:46:14;28.50;;;8.52;;
56401;SDS011;42299;35.160;26.100;2023-05-21T05:47:37;23.30;;;8.07;;
56401;SDS011;42299;35.160;26.100;2023-05-21T05:49:00;28.75;;;9.25;;
56401;SDS011;42299;35.160;26.100;2023-05-21T05:50:21;22.95;;;8.20;;
56401;SDS011;42299;35.160;26.100;2023-05-21T05:51:44;23.55;;;8.55;;
56401;SDS011;42299;35.160;26.100;2023-05-21T05:53:05;31.85;;;8.68;;
56401;SDS011;42299;35.160;26.100;2023-05-21T05:54:29;24.20;;;8.00;;
56401;SDS011;42299;35.160;26.100;2023-05-21T05:55:51;29.40;;;9.05;;
56401;SDS011;42299;35.160;26.100;2023-05-21T05:57:14;25.35;;;8.13;;
56401;SDS011;42299;35.160;26.100;2023-05-21T05:58:41;25.48;;;8.75;;
56401;SDS011;42299;35.160;26.100;2023-05-21T06:00:06;27.60;;;7.82;;
56401;SDS011;42299;35.160;26.100;2023-05-21T06:01:32;28.92;;;7.88;;
56401;SDS011;42299;35.160;26.100;2023-05-21T06:02:55;28.13;;;8.70;;
56401;SDS011;42299;35.160;26.100;2023-05-21T06:04:17;28.05;;;7.95;;
56401;SDS011;42299;35.160;26.100;2023-05-21T06:05:41;27.98;;;8.70;;
56401;SDS011;42299;35.160;26.100;2023-05-21T06:07:04;27.27;;;8.45;;
56401;SDS011;42299;35.160;26.100;2023-05-21T06:08:25;26.48;;;8.43;;
56401;SDS011;42299;35.160;26.100;2023-05-21T06:09:48;27.65;;;8.63;;
56401;SDS011;42299;35.160;26.100;2023-05-21T06:11:09;26.77;;;7.22;;
56401;SDS011;42299;35.160;26.100;2023-05-21T06:12:32;29.13;;;8.30;;
56401;SDS011;42299;35.160;26.100;2023-05-21T06:13:56;29.95;;;8.43;;
56401;SDS011;42299;35.160;26.100;2023-05-21T06:15:20;29.17;;;8.95;;
56401;SDS011;42299;35.160;26.100;2023-05-21T06:16:43;26.77;;;8.95;;
56401;SDS011;42299;35.160;26.100;2023-05-21T06:18:05;28.98;;;10.02;;
56401;SDS011;42299;35.160;26.100;2023-05-21T06:19:30;28.60;;;8.90;;
56401;SDS011;42299;35.160;26.100;2023-05-21T06:20:52;31.42;;;12.15;;
56401;SDS011;42299;35.160;26.100;2023-05-21T06:22:16;37.47;;;14.55;;
56401;SDS011;42299;35.160;26.100;2023-05-21T06:23:38;33.20;;;13.90;;
56401;SDS011;42299;35.160;26.100;2023-05-21T06:25:00;30.08;;;10.93;;
56401;SDS011;42299;35.160;26.100;2023-05-21T06:26:24;24.50;;;10.80;;
56401;SDS011;42299;35.160;26.100;2023-05-21T06:27:47;28.05;;;10.45;;
56401;SDS011;42299;35.160;26.100;2023-05-21T06:29:15;24.85;;;9.57;;
56401;SDS011;42299;35.160;26.100;2023-05-21T06:30:40;24.77;;;10.70;;
56401;SDS011;42299;35.160;26.100;2023-05-21T06:32:02;29.05;;;10.63;;
56401;SDS011;42299;35.160;26.100;2023-05-21T06:33:25;21.83;;;9.77;;
56401;SDS011;42299;35.160;26.100;2023-05-21T06:34:47;21.48;;;8.90;;
56401;SDS011;42299;35.160;26.100;2023-05-21T06:36:11;22.20;;;9.35;;
56401;SDS011;42299;35.160;26.100;2023-05-21T06:37:34;18.52;;;9.85;;
56401;SDS011;42299;35.160;26.100;2023-05-21T06:38:56;21.15;;;10.15;;
56401;SDS011;42299;35.160;26.100;2023-05-21T06:40:19;19.67;;;10.35;;
56401;SDS011;42299;35.160;26.100;2023-05-21T06:41:43;18.88;;;9.10;;
56401;SDS011;42299;35.160;26.100;2023-05-21T06:43:34;23.02;;;10.45;;
56401;SDS011;42299;35.160;26.100;2023-05-21T06:45:17;20.77;;;9.50;;
56401;SDS011;42299;35.160;26.100;2023-05-21T06:46:39;17.45;;;10.73;;
56401;SDS011;42299;35.160;26.100;2023-05-21T06:48:03;19.27;;;10.93;;
56401;SDS011;42299;35.160;26.100;2023-05-21T06:49:25;22.42;;;11.30;;
56401;SDS011;42299;35.160;26.100;2023-05-21T06:50:47;15.93;;;11.10;;
56401;SDS011;42299;35.160;26.100;2023-05-21T06:52:09;17.73;;;10.75;;
56401;SDS011;42299;35.160;26.100;2023-05-21T06:53:32;18.55;;;9.70;;
56401;SDS011;42299;35.160;26.100;2023-05-21T06:54:54;23.95;;;11.18;;
56401;SDS011;42299;35.160;26.100;2023-05-21T06:56:18;31.40;;;15.93;;
56401;SDS011;42299;35.160;26.100;2023-05-21T06:57:41;19.55;;;10.45;;
56401;SDS011;42299;35.160;26.100;2023-05-21T06:59:03;22.00;;;11.20;;
56401;SDS011;42299;35.160;26.100;2023-05-21T07:00:26;22.05;;;11.48;;
56401;SDS011;42299;35.160;26.100;2023-05-21T07:01:48;21.52;;;11.57;;
56401;SDS011;42299;35.160;26.100;2023-05-21T07:03:11;21.15;;;11.25;;
56401;SDS011;42299;35.160;26.100;2023-05-21T07:04:33;18.17;;;10.90;;
56401;SDS011;42299;35.160;26.100;2023-05-21T07:05:56;23.17;;;12.27;;
56401;SDS011;42299;35.160;26.100;2023-05-21T07:07:17;22.98;;;11.52;;
56401;SDS011;42299;35.160;26.100;2023-05-21T07:08:40;19.75;;;11.63;;
56401;SDS011;42299;35.160;26.100;2023-05-21T07:10:03;19.77;;;11.73;;
56401;SDS011;42299;35.160;26.100;2023-05-21T07:11:26;20.08;;;11.02;;
56401;SDS011;42299;35.160;26.100;2023-05-21T07:12:49;21.70;;;12.85;;
56401;SDS011;42299;35.160;26.100;2023-05-21T07:14:12;22.98;;;12.10;;
56401;SDS011;42299;35.160;26.100;2023-05-21T07:15:36;19.77;;;11.50;;
56401;SDS011;42299;35.160;26.100;2023-05-21T07:16:59;19.45;;;11.13;;
56401;SDS011;42299;35.160;26.100;2023-05-21T07:18:22;22.58;;;10.45;;
56401;SDS011;42299;35.160;26.100;2023-05-21T07:19:43;25.00;;;10.73;;
56401;SDS011;42299;35.160;26.100;2023-05-21T07:21:06;22.40;;;9.88;;
56401;SDS011;42299;35.160;26.100;2023-05-21T07:22:29;20.10;;;9.65;;
56401;SDS011;42299;35.160;26.100;2023-05-21T07:23:52;22.58;;;9.52;;
56401;SDS011;42299;35.160;26.100;2023-05-21T07:25:14;18.73;;;9.52;;
56401;SDS011;42299;35.160;26.100;2023-05-21T07:26:37;18.80;;;9.38;;
56401;SDS011;42299;35.160;26.100;2023-05-21T07:27:58;15.77;;;9.55;;
56401;SDS011;42299;35.160;26.100;2023-05-21T07:29:21;22.55;;;10.48;;
56401;SDS011;42299;35.160;26.100;2023-05-21T07:30:46;22.83;;;10.32;;
56401;SDS011;42299;35.160;26.100;2023-05-21T07:32:13;19.60;;;9.80;;
56401;SDS011;42299;35.160;26.100;2023-05-21T07:33:36;16.90;;;9.32;;
56401;SDS011;42299;35.160;26.100;2023-05-21T07:34:59;16.95;;;9.98;;
56401;SDS011;42299;35.160;26.100;2023-05-21T07:36:24;18.17;;;9.18;;
56401;SDS011;42299;35.160;26.100;2023-05-21T07:37:47;20.35;;;9.98;;
56401;SDS011;42299;35.160;26.100;2023-05-21T07:39:08;16.40;;;9.98;;
56401;SDS011;42299;35.160;26.100;2023-05-21T07:40:31;18.25;;;10.00;;
56401;SDS011;42299;35.160;26.100;2023-05-21T07:41:55;16.95;;;9.68;;
56401;SDS011;42299;35.160;26.100;2023-05-21T07:43:18;19.00;;;9.60;;
56401;SDS011;42299;35.160;26.100;2023-05-21T07:44:40;19.35;;;10.13;;
56401;SDS011;42299;35.160;26.100;2023-05-21T07:46:04;16.20;;;9.18;;
56401;SDS011;42299;35.160;26.100;2023-05-21T07:47:27;17.25;;;8.43;;
56401;SDS011;42299;35.160;26.100;2023-05-21T07:48:51;24.17;;;9.35;;
56401;SDS011;42299;35.160;26.100;2023-05-21T07:50:13;13.52;;;8.57;;
56401;SDS011;42299;35.160;26.100;2023-05-21T07:51:36;15.40;;;9.40;;
56401;SDS011;42299;35.160;26.100;2023-05-21T07:52:58;16.70;;;9.57;;
56401;SDS011;42299;35.160;26.100;2023-05-21T07:54:21;17.45;;;9.50;;
56401;SDS011;42299;35.160;26.100;2023-05-21T07:55:44;13.35;;;8.75;;
56401;SDS011;42299;35.160;26.100;2023-05-21T07:57:10;15.25;;;8.38;;
56401;SDS011;42299;35.160;26.100;2023-05-21T07:58:49;13.95;;;9.57;;
56401;SDS011;42299;35.160;26.100;2023-05-21T08:00:12;14.93;;;8.65;;
56401;SDS011;42299;35.160;26.100;2023-05-21T08:01:46;14.15;;;8.38;;
56401;SDS011;42299;35.160;26.100;2023-05-21T08:03:09;15.05;;;8.40;;
56401;SDS011;42299;35.160;26.100;2023-05-21T08:04:32;17.52;;;9.63;;
56401;SDS011;42299;35.160;26.100;2023-05-21T08:05:55;13.63;;;8.05;;
56401;SDS011;42299;35.160;26.100;2023-05-21T08:07:17;16.33;;;8.90;;
56401;SDS011;42299;35.160;26.100;2023-05-21T08:08:41;17.02;;;8.02;;
56401;SDS011;42299;35.160;26.100;2023-05-21T08:10:04;15.23;;;8.13;;
56401;SDS011;42299;35.160;26.100;2023-05-21T08:11:26;18.27;;;8.23;;
56401;SDS011;42299;35.160;26.100;2023-05-21T08:12:48;18.60;;;8.40;;
56401;SDS011;42299;35.160;26.100;2023-05-21T08:14:11;13.60;;;7.38;;